Time;durP1;ratioP1;P1;durP2;ratioP2;P2;SDS_P1;SDS_P2;PMS_P1;PMS_P2;Temp;Humidity;BMP_temperature;BMP_pressure;BME280_temperature;BME280_humidity;BME280_pressure;Samples;Min_cycle;Max_cycle;Signal;HPM_P1;HPM_P2
2021/12/16 00:02:02;;;;;;;;;;;;;;;;;;1003790;29;1078;-26
2021/12/16 00:03:15;;;;;;;;;;;;;;;;;;1003478;29;1405;-26
2021/12/16 00:04:57;;;;;;;;;;;;;;;;;;1002054;29;1318;-26
2021/12/16 00:07:55;;;;;;;;;;;;;;;;;;1007363;29;885;-26
2021/12/16 00:08:20;;;;;;;;;;;;;;;;;;1007252;29;1729;-26
2021/12/16 00:08:58;;;;;;;;;;;;;;;;;;1009228;29;812;-26
2021/12/16 00:10:37;;;;;;;;;;;;;;;;;;996002;29;1066;-27
2021/12/16 00:10:37;;;;;;;;;;;;;;;;;;1008097;29;859;-26
2021/12/16 00:19:41;;;;;;;;;;;;;;;;;;1007423;29;1018;-27
2021/12/16 00:30:36;;;;;;;;;;;;;;;;;;1010404;29;1234;-26
2021/12/16 00:31:52;;;;;;;;;;;;;;;;;;1010905;29;1505;-27
2021/12/16 00:33:16;;;;;;;;;;;;;;;;;;1007354;29;1377;-26
2021/12/16 00:33:58;;;;;;;;;;;;;;;;;;1007692;29;1011;-26
2021/12/16 00:34:30;;;;;;;;;;;;;;;;;;1011438;29;1352;-26
2021/12/16 00:35:00;;;;;;;;;;;;;;;;;;1011832;29;931;-28
2021/12/16 00:35:31;;;;;;;;;;;;;;;;;;1002992;29;1538;-27
2021/12/16 00:36:03;;;;;;;;;;;;;;;;;;1003381;29;1237;-27
2021/12/16 00:36:35;;;;;;;;;;;;;;;;;;1003405;29;1021;-27
2021/12/16 00:37:05;;;;;;;;;;;;;;;;;;1003529;29;1067;-27
2021/12/16 00:37:36;;;;;;;;;;;;;;;;;;1006993;29;1331;-27
2021/12/16 00:38:07;;;;;;;;;;;;;;;;;;995758;29;1084;-28
2021/12/16 00:38:41;;;;;;;;;;;;;;;;;;988082;30;1493;-27
2021/12/16 00:39:14;;;;;;;;;;;;;;;;;;988880;29;1047;-27
2021/12/16 00:39:45;;;;;;;;;;;;;;;;;;992613;29;1190;-27
2021/12/16 00:40:16;;;;;;;;;;;;;;;;;;999693;29;1128;-27
2021/12/16 00:40:47;;;;;;;;;;;;;;;;;;1011235;29;1064;-30
2021/12/16 00:41:18;;;;;;;;;;;;;;;;;;1011103;29;951;-27
2021/12/16 00:41:54;;;;;;;;;;;;;;;;;;1011045;29;1137;-28
2021/12/16 00:43:14;;;;;;;;;;;;;;;;;;1003447;29;1272;-26
2021/12/16 00:43:52;;;;;;;;;;;;;;;;;;1003540;29;951;-27
2021/12/16 00:45:41;;;;;;;;;;;;;;;;;;991920;29;1148;-27
2021/12/16 00:49:06;;;;;;;;;;;;;;;;;;1011432;29;1370;-26
2021/12/16 00:49:46;;;;;;;;;;;;;;;;;;1011381;29;1093;-27
2021/12/16 00:54:09;;;;;;;;;;;;;;;;;;1011246;29;1242;-26
2021/12/16 00:54:39;;;;;;;;;;;;;;;;;;1006813;29;1230;-28
2021/12/16 00:55:57;;;;;;;;;;;;;;;;;;1011622;29;905;-27
2021/12/16 00:56:28;;;;;;;;;;;;;;;;;;1011676;29;936;-27
2021/12/16 00:57:05;;;;;;;;;;;;;;;;;;1011633;29;761;-27
2021/12/16 00:57:37;;;;;;;;;;;;;;;;;;1007483;29;1192;-27
2021/12/16 00:58:07;;;;;;;;;;;;;;;;;;1007576;29;1184;-31
2021/12/16 00:58:44;;;;;;;;;;;;;;;;;;1011274;29;1230;-31
2021/12/16 00:59:18;;;;;;;;;;;;;;;;;;1014232;29;1365;-27
2021/12/16 00:59:50;;;;;;;;;;;;;;;;;;1011351;29;2162;-28
2021/12/16 01:00:28;;;;;;;;;;;;;;;;;;1011306;29;967;-27
2021/12/16 01:01:33;;;;;;;;;;;;;;;;;;1011137;29;947;-27
2021/12/16 01:02:10;;;;;;;;;;;;;;;;;;1006748;29;1456;-27
2021/12/16 01:03:04;;;;;;;;;;;;;;;;;;1006985;29;1018;-27
2021/12/16 01:03:45;;;;;;;;;;;;;;;;;;1006989;29;1791;-25
2021/12/16 01:05:42;;;;;;;;;;;;;;;;;;1006778;29;1291;-27
2021/12/16 01:06:21;;;;;;;;;;;;;;;;;;1007146;29;1076;-27
2021/12/16 01:34:46;;;;;;;;;;;;;;;;;;1007403;29;856;-27
2021/12/16 01:36:24;;;;;;;;;;;;;;;;;;1003853;29;1287;-27
2021/12/16 01:40:10;;;;;;;;;;;;;;;;;;1011328;29;757;-27
2021/12/16 01:45:33;;;;;;;;;;;;;;;;;;1010711;29;1458;-27
2021/12/16 01:48:16;;;;;;;;;;;;;;;;;;1004866;29;1139;-27
2021/12/16 01:49:48;;;;;;;;;;;;;;;;;;1002548;29;989;-27
2021/12/16 01:50:31;;;;;;;;;;;;;;;;;;999787;29;982;-28
2021/12/16 01:51:32;;;;;;;;;;;;;;;;;;999233;29;1228;-26
2021/12/16 01:52:09;;;;;;;;;;;;;;;;;;996687;29;1704;-28
2021/12/16 01:55:15;;;;;;;;;;;;;;;;;;1010688;29;1387;-27
2021/12/16 01:56:03;;;;;;;;;;;;;;;;;;1007766;29;1215;-27
2021/12/16 01:57:32;;;;;;;;;;;;;;;;;;1007101;29;1395;-28
2021/12/16 01:58:11;;;;;;;;;;;;;;;;;;1007083;29;1745;-28
2021/12/16 01:58:44;;;;;;;;;;;;;;;;;;1010997;29;1568;-27
2021/12/16 01:59:19;;;;;;;;;;;;;;;;;;1011102;29;1362;-28
2021/12/16 01:59:59;;;;;;;;;;;;;;;;;;1008533;29;1243;-27
2021/12/16 02:00:44;;;;;;;;;;;;;;;;;;1011271;29;1167;-28
2021/12/16 02:01:19;;;;;;;;;;;;;;;;;;1011263;29;1274;-28
2021/12/16 02:01:49;;;;;;;;;;;;;;;;;;1011183;29;1014;-27
2021/12/16 02:03:06;;;;;;;;;;;;;;;;;;1000896;29;974;-27
2021/12/16 02:03:12;;;;;;;;;;;;;;;;;;985200;29;1185;-28
2021/12/16 02:03:48;;;;;;;;;;;;;;;;;;991896;29;1022;-26
2021/12/16 02:04:29;;;;;;;;;;;;;;;;;;1002046;29;999;-27
2021/12/16 02:05:27;;;;;;;;;;;;;;;;;;1000998;29;1105;-27
2021/12/16 02:07:09;;;;;;;;;;;;;;;;;;1010728;29;1121;-27
2021/12/16 02:08:13;;;;;;;;;;;;;;;;;;1004326;29;1051;-27
2021/12/16 02:08:43;;;;;;;;;;;;;;;;;;1003128;29;1080;-28
2021/12/16 02:09:24;;;;;;;;;;;;;;;;;;1007009;29;1132;-27
2021/12/16 02:10:02;;;;;;;;;;;;;;;;;;1006757;29;1270;-25
2021/12/16 02:10:41;;;;;;;;;;;;;;;;;;1005651;29;995;-27
2021/12/16 02:11:23;;;;;;;;;;;;;;;;;;1002827;29;1179;-27
2021/12/16 02:12:53;;;;;;;;;;;;;;;;;;1000310;29;1379;-26
2021/12/16 02:27:32;;;;;;;;;;;;;;;;;;1006762;29;1188;-27
2021/12/16 02:28:49;;;;;;;;;;;;;;;;;;1006625;29;1370;-26
2021/12/16 02:34:31;;;;;;;;;;;;;;;;;;997162;29;1264;-27
2021/12/16 02:35:43;;;;;;;;;;;;;;;;;;991521;29;1407;-27
2021/12/16 02:36:47;;;;;;;;;;;;;;;;;;990146;29;1164;-28
2021/12/16 02:37:20;;;;;;;;;;;;;;;;;;995375;29;970;-27
2021/12/16 02:37:54;;;;;;;;;;;;;;;;;;989840;29;1244;-27
2021/12/16 02:38:28;;;;;;;;;;;;;;;;;;984529;30;941;-27
2021/12/16 02:39:03;;;;;;;;;;;;;;;;;;991874;29;1392;-27
2021/12/16 02:39:34;;;;;;;;;;;;;;;;;;991726;29;928;-28
2021/12/16 02:40:07;;;;;;;;;;;;;;;;;;1002494;29;1442;-27
2021/12/16 02:40:38;;;;;;;;;;;;;;;;;;1010225;29;1282;-27
2021/12/16 02:41:10;;;;;;;;;;;;;;;;;;1015023;29;1262;-27
2021/12/16 02:41:42;;;;;;;;;;;;;;;;;;1010576;29;1277;-27
2021/12/16 02:42:21;;;;;;;;;;;;;;;;;;1006476;29;1164;-28
2021/12/16 02:48:54;;;;;;;;;;;;;;;;;;1010847;29;1194;-26
2021/12/16 02:49:27;;;;;;;;;;;;;;;;;;1010571;29;1138;-27
2021/12/16 02:49:58;;;;;;;;;;;;;;;;;;1010524;29;1143;-28
2021/12/16 02:50:29;;;;;;;;;;;;;;;;;;998844;29;1523;-27
2021/12/16 02:51:08;;;;;;;;;;;;;;;;;;998495;29;1147;-27
2021/12/16 02:51:38;;;;;;;;;;;;;;;;;;992933;29;1246;-27
2021/12/16 02:52:09;;;;;;;;;;;;;;;;;;1001633;29;860;-27
2021/12/16 02:52:39;;;;;;;;;;;;;;;;;;1008430;29;947;-27
2021/12/16 02:53:10;;;;;;;;;;;;;;;;;;1006930;29;975;-27
2021/12/16 02:53:44;;;;;;;;;;;;;;;;;;1006765;29;1903;-28
2021/12/16 02:54:14;;;;;;;;;;;;;;;;;;1010227;29;1338;-27
2021/12/16 02:54:45;;;;;;;;;;;;;;;;;;1011066;29;1223;-27
2021/12/16 02:55:17;;;;;;;;;;;;;;;;;;1014476;29;1151;-27
2021/12/16 02:55:48;;;;;;;;;;;;;;;;;;1010697;29;1040;-27
2021/12/16 02:56:18;;;;;;;;;;;;;;;;;;1010870;29;892;-27
2021/12/16 02:56:49;;;;;;;;;;;;;;;;;;1010357;29;998;-27
2021/12/16 02:57:21;;;;;;;;;;;;;;;;;;1002717;29;1298;-27
2021/12/16 02:57:59;;;;;;;;;;;;;;;;;;1006765;29;1275;-27
2021/12/16 02:58:30;;;;;;;;;;;;;;;;;;1008027;29;1307;-27
2021/12/16 02:59:03;;;;;;;;;;;;;;;;;;1010751;29;956;-27
2021/12/16 02:59:37;;;;;;;;;;;;;;;;;;1008399;29;1401;-26
2021/12/16 03:00:13;;;;;;;;;;;;;;;;;;1006044;29;1069;-27
2021/12/16 03:00:47;;;;;;;;;;;;;;;;;;1003523;29;1455;-27
2021/12/16 03:01:43;;;;;;;;;;;;;;;;;;1006714;29;1302;-26
2021/12/16 03:02:17;;;;;;;;;;;;;;;;;;1012426;29;1376;-27
2021/12/16 03:02:50;;;;;;;;;;;;;;;;;;1014281;29;1070;-27
2021/12/16 03:03:21;;;;;;;;;;;;;;;;;;1002859;29;1252;-27
2021/12/16 03:03:53;;;;;;;;;;;;;;;;;;998251;29;1135;-27
2021/12/16 03:04:26;;;;;;;;;;;;;;;;;;995122;29;985;-27
2021/12/16 03:04:57;;;;;;;;;;;;;;;;;;996697;29;1307;-27
2021/12/16 03:05:27;;;;;;;;;;;;;;;;;;1007245;29;1151;-27
2021/12/16 03:06:01;;;;;;;;;;;;;;;;;;1006560;29;1036;-27
2021/12/16 03:06:32;;;;;;;;;;;;;;;;;;1002751;29;1379;-27
2021/12/16 03:07:03;;;;;;;;;;;;;;;;;;1002799;29;1309;-27
2021/12/16 03:07:34;;;;;;;;;;;;;;;;;;1003793;29;1311;-27
2021/12/16 03:08:06;;;;;;;;;;;;;;;;;;1007231;29;1278;-27
2021/12/16 03:08:37;;;;;;;;;;;;;;;;;;1007375;29;1158;-27
2021/12/16 03:09:10;;;;;;;;;;;;;;;;;;1006681;29;1016;-27
2021/12/16 03:11:17;;;;;;;;;;;;;;;;;;1007859;29;1094;-27
2021/12/16 03:13:24;;;;;;;;;;;;;;;;;;1006689;29;1275;-27
2021/12/16 03:14:53;;;;;;;;;;;;;;;;;;1010506;29;1273;-27
2021/12/16 03:17:57;;;;;;;;;;;;;;;;;;1015022;29;930;-27
2021/12/16 03:18:42;;;;;;;;;;;;;;;;;;1013268;29;1516;-26
2021/12/16 03:20:03;;;;;;;;;;;;;;;;;;1014607;29;1340;-26
2021/12/16 03:20:51;;;;;;;;;;;;;;;;;;1015898;29;1138;-28
2021/12/16 03:21:29;;;;;;;;;;;;;;;;;;1011376;29;1038;-27
2021/12/16 03:22:02;;;;;;;;;;;;;;;;;;1011514;29;1047;-27
2021/12/16 03:23:52;;;;;;;;;;;;;;;;;;1014758;29;863;-27
2021/12/16 03:27:42;;;;;;;;;;;;;;;;;;1010979;29;1489;-27
2021/12/16 03:31:06;;;;;;;;;;;;;;;;;;1011501;29;1472;-27
2021/12/16 03:31:58;;;;;;;;;;;;;;;;;;1007576;29;1185;-27
2021/12/16 03:35:51;;;;;;;;;;;;;;;;;;1014952;29;1269;-27
2021/12/16 03:37:15;;;;;;;;;;;;;;;;;;1007268;29;1054;-26
2021/12/16 03:37:45;;;;;;;;;;;;;;;;;;1003268;29;1248;-26
2021/12/16 03:38:16;;;;;;;;;;;;;;;;;;999758;29;1385;-27
2021/12/16 03:38:48;;;;;;;;;;;;;;;;;;1003048;29;1422;-32
2021/12/16 03:39:18;;;;;;;;;;;;;;;;;;1003768;29;977;-27
2021/12/16 03:39:51;;;;;;;;;;;;;;;;;;1004328;29;876;-27
2021/12/16 03:40:27;;;;;;;;;;;;;;;;;;1007999;29;784;-27
2021/12/16 03:41:00;;;;;;;;;;;;;;;;;;999742;29;1025;-27
2021/12/16 03:41:31;;;;;;;;;;;;;;;;;;999820;29;1505;-27
2021/12/16 03:42:02;;;;;;;;;;;;;;;;;;999287;29;1339;-27
2021/12/16 03:42:33;;;;;;;;;;;;;;;;;;996334;29;1255;-27
2021/12/16 03:43:13;;;;;;;;;;;;;;;;;;994696;29;1202;-27
2021/12/16 03:43:46;;;;;;;;;;;;;;;;;;995817;29;1568;-27
2021/12/16 03:44:26;;;;;;;;;;;;;;;;;;996195;29;1188;-27
2021/12/16 03:45:05;;;;;;;;;;;;;;;;;;999967;29;1201;-27
2021/12/16 03:46:33;;;;;;;;;;;;;;;;;;1007200;29;1343;-27
2021/12/16 03:47:05;;;;;;;;;;;;;;;;;;1007606;29;1384;-27
2021/12/16 03:47:41;;;;;;;;;;;;;;;;;;1007577;29;1357;-27
2021/12/16 03:48:15;;;;;;;;;;;;;;;;;;1002244;29;1564;-27
2021/12/16 03:48:49;;;;;;;;;;;;;;;;;;999808;29;1005;-27
2021/12/16 03:49:25;;;;;;;;;;;;;;;;;;999374;29;1661;-27
2021/12/16 03:49:57;;;;;;;;;;;;;;;;;;999953;29;1498;-27
2021/12/16 03:50:28;;;;;;;;;;;;;;;;;;999979;29;1593;-27
2021/12/16 03:50:59;;;;;;;;;;;;;;;;;;1002647;29;1016;-27
2021/12/16 03:51:35;;;;;;;;;;;;;;;;;;1003903;29;1144;-28
2021/12/16 03:52:08;;;;;;;;;;;;;;;;;;1003789;29;1358;-27
2021/12/16 03:52:44;;;;;;;;;;;;;;;;;;995969;29;1262;-27
2021/12/16 03:53:17;;;;;;;;;;;;;;;;;;991907;29;1474;-27
2021/12/16 03:53:49;;;;;;;;;;;;;;;;;;993166;29;1977;-28
2021/12/16 03:54:31;;;;;;;;;;;;;;;;;;997715;29;1250;-28
2021/12/16 03:55:06;;;;;;;;;;;;;;;;;;994344;29;1245;-26
2021/12/16 03:55:36;;;;;;;;;;;;;;;;;;998568;29;1060;-26
2021/12/16 03:56:09;;;;;;;;;;;;;;;;;;999973;29;1169;-27
2021/12/16 03:56:57;;;;;;;;;;;;;;;;;;1008284;29;1218;-27
2021/12/16 03:57:31;;;;;;;;;;;;;;;;;;1011434;29;1287;-26
2021/12/16 03:58:02;;;;;;;;;;;;;;;;;;1010972;29;1650;-26
2021/12/16 03:58:34;;;;;;;;;;;;;;;;;;1008841;29;1153;-27
2021/12/16 03:59:06;;;;;;;;;;;;;;;;;;1002625;29;1338;-27
2021/12/16 03:59:48;;;;;;;;;;;;;;;;;;990301;29;1276;-27
2021/12/16 04:00:50;;;;;;;;;;;;;;;;;;995966;29;1174;-26
2021/12/16 04:01:23;;;;;;;;;;;;;;;;;;997609;29;1295;-27
2021/12/16 04:02:15;;;;;;;;;;;;;;;;;;1011423;29;1016;-26
2021/12/16 04:02:48;;;;;;;;;;;;;;;;;;1012726;29;1303;-27
2021/12/16 04:03:24;;;;;;;;;;;;;;;;;;1004961;29;1413;-26
2021/12/16 04:03:55;;;;;;;;;;;;;;;;;;1004267;29;1441;-27
2021/12/16 04:04:26;;;;;;;;;;;;;;;;;;1003502;29;1454;-27
2021/12/16 04:04:59;;;;;;;;;;;;;;;;;;999869;29;1236;-26
2021/12/16 04:05:30;;;;;;;;;;;;;;;;;;999546;29;1350;-27
2021/12/16 04:06:05;;;;;;;;;;;;;;;;;;995336;29;1224;-26
2021/12/16 04:06:37;;;;;;;;;;;;;;;;;;980685;30;1316;-26
2021/12/16 04:07:11;;;;;;;;;;;;;;;;;;978386;30;1483;-27
2021/12/16 04:08:12;;;;;;;;;;;;;;;;;;980889;30;1555;-27
2021/12/16 04:08:52;;;;;;;;;;;;;;;;;;994719;29;1295;-27
2021/12/16 04:09:23;;;;;;;;;;;;;;;;;;999400;29;1256;-27
2021/12/16 04:10:19;;;;;;;;;;;;;;;;;;1003686;29;1010;-26
2021/12/16 04:11:01;;;;;;;;;;;;;;;;;;1003745;29;1312;-27
2021/12/16 04:11:38;;;;;;;;;;;;;;;;;;999721;29;999;-26
2021/12/16 04:12:19;;;;;;;;;;;;;;;;;;1003634;29;1332;-26
2021/12/16 04:12:50;;;;;;;;;;;;;;;;;;1003369;29;1145;-26
2021/12/16 04:13:22;;;;;;;;;;;;;;;;;;1005803;29;1542;-26
2021/12/16 04:14:00;;;;;;;;;;;;;;;;;;1008341;29;1360;-26
2021/12/16 04:14:40;;;;;;;;;;;;;;;;;;1010610;29;1216;-26
2021/12/16 04:15:11;;;;;;;;;;;;;;;;;;1011416;29;1160;-27
2021/12/16 04:15:48;;;;;;;;;;;;;;;;;;1011611;29;1298;-26
2021/12/16 04:16:20;;;;;;;;;;;;;;;;;;1007821;29;1176;-26
2021/12/16 04:16:52;;;;;;;;;;;;;;;;;;1007412;29;1486;-26
2021/12/16 04:17:33;;;;;;;;;;;;;;;;;;1009405;29;1135;-26
2021/12/16 04:18:06;;;;;;;;;;;;;;;;;;1007156;29;1040;-27
2021/12/16 04:18:38;;;;;;;;;;;;;;;;;;1007385;29;1332;-26
2021/12/16 04:19:12;;;;;;;;;;;;;;;;;;999452;29;1425;-26
2021/12/16 04:19:43;;;;;;;;;;;;;;;;;;1000212;29;1273;-27
2021/12/16 04:20:14;;;;;;;;;;;;;;;;;;1003449;29;1018;-26
2021/12/16 04:20:45;;;;;;;;;;;;;;;;;;1005029;29;973;-27
2021/12/16 04:21:19;;;;;;;;;;;;;;;;;;1011159;29;1046;-26
2021/12/16 04:21:52;;;;;;;;;;;;;;;;;;1011253;29;1032;-27
2021/12/16 04:22:29;;;;;;;;;;;;;;;;;;1011176;29;1022;-28
2021/12/16 04:23:05;;;;;;;;;;;;;;;;;;1015079;29;864;-27
2021/12/16 04:23:36;;;;;;;;;;;;;;;;;;1014876;29;1365;-25
2021/12/16 04:24:07;;;;;;;;;;;;;;;;;;1002883;29;1192;-26
2021/12/16 04:24:39;;;;;;;;;;;;;;;;;;995729;29;1288;-26
2021/12/16 04:25:12;;;;;;;;;;;;;;;;;;995723;29;1287;-26
2021/12/16 04:25:43;;;;;;;;;;;;;;;;;;988943;29;1178;-27
2021/12/16 04:26:15;;;;;;;;;;;;;;;;;;996638;29;1334;-26
2021/12/16 04:26:46;;;;;;;;;;;;;;;;;;999518;29;1072;-27
2021/12/16 04:27:18;;;;;;;;;;;;;;;;;;995662;29;1125;-26
2021/12/16 04:27:51;;;;;;;;;;;;;;;;;;998731;29;1403;-27
2021/12/16 04:28:24;;;;;;;;;;;;;;;;;;1000517;29;1329;-27
2021/12/16 04:28:57;;;;;;;;;;;;;;;;;;1008822;29;1102;-27
2021/12/16 04:29:28;;;;;;;;;;;;;;;;;;1011862;29;1316;-26
2021/12/16 04:29:59;;;;;;;;;;;;;;;;;;1005496;29;1062;-26
2021/12/16 04:30:30;;;;;;;;;;;;;;;;;;1003407;29;1168;-27
2021/12/16 04:31:01;;;;;;;;;;;;;;;;;;1003464;29;1327;-27
2021/12/16 04:31:32;;;;;;;;;;;;;;;;;;1006451;29;1212;-27
2021/12/16 04:32:04;;;;;;;;;;;;;;;;;;1010397;29;1063;-26
2021/12/16 04:32:36;;;;;;;;;;;;;;;;;;1007185;29;983;-27
2021/12/16 04:33:06;;;;;;;;;;;;;;;;;;1006552;29;1424;-26
2021/12/16 04:33:39;;;;;;;;;;;;;;;;;;1006782;29;1911;-27
2021/12/16 04:34:12;;;;;;;;;;;;;;;;;;1002726;29;1253;-25
2021/12/16 04:34:43;;;;;;;;;;;;;;;;;;1001481;29;1173;-26
2021/12/16 04:35:14;;;;;;;;;;;;;;;;;;1012144;29;1402;-26
2021/12/16 04:35:48;;;;;;;;;;;;;;;;;;1011383;29;1321;-26
2021/12/16 04:36:19;;;;;;;;;;;;;;;;;;1011109;29;1143;-27
2021/12/16 04:36:51;;;;;;;;;;;;;;;;;;1006794;29;1022;-26
2021/12/16 04:37:21;;;;;;;;;;;;;;;;;;1003310;29;1254;-27
2021/12/16 04:37:53;;;;;;;;;;;;;;;;;;1003167;29;1160;-26
2021/12/16 04:38:26;;;;;;;;;;;;;;;;;;998253;29;1363;-26
2021/12/16 04:38:57;;;;;;;;;;;;;;;;;;1000127;29;1180;-27
2021/12/16 04:39:29;;;;;;;;;;;;;;;;;;999866;29;1166;-26
2021/12/16 04:40:02;;;;;;;;;;;;;;;;;;1009706;29;1150;-26
2021/12/16 04:40:35;;;;;;;;;;;;;;;;;;1010225;29;1180;-26
2021/12/16 04:41:11;;;;;;;;;;;;;;;;;;1005989;29;1285;-26
2021/12/16 04:41:42;;;;;;;;;;;;;;;;;;1005042;29;1337;-27
2021/12/16 04:42:15;;;;;;;;;;;;;;;;;;1007467;29;1466;-27
2021/12/16 04:42:52;;;;;;;;;;;;;;;;;;1002128;29;884;-26
2021/12/16 04:43:32;;;;;;;;;;;;;;;;;;1004625;29;1232;-28
2021/12/16 04:44:13;;;;;;;;;;;;;;;;;;1003799;29;1317;-26
2021/12/16 04:44:44;;;;;;;;;;;;;;;;;;1007036;29;1356;-26
2021/12/16 04:45:18;;;;;;;;;;;;;;;;;;1013836;29;1582;-27
2021/12/16 04:45:50;;;;;;;;;;;;;;;;;;1015227;29;1355;-27
2021/12/16 04:46:25;;;;;;;;;;;;;;;;;;1015406;29;1125;-26
2021/12/16 04:46:57;;;;;;;;;;;;;;;;;;1009061;29;1239;-26
2021/12/16 04:47:29;;;;;;;;;;;;;;;;;;1010753;29;1349;-27
2021/12/16 04:48:00;;;;;;;;;;;;;;;;;;1007168;29;1410;-26
2021/12/16 04:48:37;;;;;;;;;;;;;;;;;;1004192;29;1105;-27
2021/12/16 04:49:18;;;;;;;;;;;;;;;;;;1005908;29;1300;-27
2021/12/16 04:49:50;;;;;;;;;;;;;;;;;;1003181;29;1087;-26
2021/12/16 04:50:21;;;;;;;;;;;;;;;;;;1007227;29;1164;-27
2021/12/16 04:50:52;;;;;;;;;;;;;;;;;;1001270;29;1409;-26
2021/12/16 04:51:25;;;;;;;;;;;;;;;;;;995979;29;1178;-27
2021/12/16 04:51:57;;;;;;;;;;;;;;;;;;1003396;29;1051;-27
2021/12/16 04:52:28;;;;;;;;;;;;;;;;;;1003831;29;1396;-27
2021/12/16 04:52:59;;;;;;;;;;;;;;;;;;1007234;29;1306;-27
2021/12/16 04:53:33;;;;;;;;;;;;;;;;;;1010941;29;1997;-26
2021/12/16 04:54:04;;;;;;;;;;;;;;;;;;1011087;29;1074;-27
2021/12/16 04:54:37;;;;;;;;;;;;;;;;;;1011571;29;1494;-26
2021/12/16 04:55:08;;;;;;;;;;;;;;;;;;1011349;29;1159;-26
2021/12/16 04:55:39;;;;;;;;;;;;;;;;;;1006736;29;1132;-26
2021/12/16 04:56:11;;;;;;;;;;;;;;;;;;1003548;29;1555;-27
2021/12/16 04:56:54;;;;;;;;;;;;;;;;;;999634;29;1325;-27
2021/12/16 04:57:25;;;;;;;;;;;;;;;;;;995719;29;1251;-26
2021/12/16 04:57:55;;;;;;;;;;;;;;;;;;999382;29;1471;-26
2021/12/16 04:58:27;;;;;;;;;;;;;;;;;;1005114;29;1552;-27
2021/12/16 04:58:57;;;;;;;;;;;;;;;;;;1007383;29;925;-27
2021/12/16 04:59:30;;;;;;;;;;;;;;;;;;1007088;29;1456;-26
2021/12/16 05:00:02;;;;;;;;;;;;;;;;;;1002661;29;1427;-26
2021/12/16 05:00:36;;;;;;;;;;;;;;;;;;1002842;29;1595;-25
2021/12/16 05:01:21;;;;;;;;;;;;;;;;;;1008215;29;1338;-27
2021/12/16 05:01:55;;;;;;;;;;;;;;;;;;1004952;29;1001;-27
2021/12/16 05:02:43;;;;;;;;;;;;;;;;;;1003326;29;1129;-26
2021/12/16 05:03:21;;;;;;;;;;;;;;;;;;1003411;29;1294;-27
2021/12/16 05:03:53;;;;;;;;;;;;;;;;;;1005598;29;1196;-27
2021/12/16 05:04:24;;;;;;;;;;;;;;;;;;1004871;29;1307;-27
2021/12/16 05:04:54;;;;;;;;;;;;;;;;;;1007727;29;1112;-27
2021/12/16 05:05:25;;;;;;;;;;;;;;;;;;1002827;29;1143;-27
2021/12/16 05:05:56;;;;;;;;;;;;;;;;;;999858;29;1037;-27
2021/12/16 05:06:28;;;;;;;;;;;;;;;;;;999181;29;979;-26
2021/12/16 05:06:59;;;;;;;;;;;;;;;;;;988222;29;1337;-27
2021/12/16 05:07:30;;;;;;;;;;;;;;;;;;988129;30;1116;-26
2021/12/16 05:08:27;;;;;;;;;;;;;;;;;;991442;29;1608;-26
2021/12/16 05:09:07;;;;;;;;;;;;;;;;;;1003934;29;1201;-27
2021/12/16 05:10:24;;;;;;;;;;;;;;;;;;1007122;29;1233;-26
2021/12/16 05:11:15;;;;;;;;;;;;;;;;;;1010936;29;1289;-27
2021/12/16 05:11:48;;;;;;;;;;;;;;;;;;1003210;29;1255;-27
2021/12/16 05:12:20;;;;;;;;;;;;;;;;;;999707;29;1394;-26
2021/12/16 05:12:53;;;;;;;;;;;;;;;;;;999357;29;1228;-26
2021/12/16 05:13:26;;;;;;;;;;;;;;;;;;1000930;29;1290;-26
2021/12/16 05:13:58;;;;;;;;;;;;;;;;;;1007828;29;1354;-26
2021/12/16 05:14:28;;;;;;;;;;;;;;;;;;1010450;29;1199;-26
2021/12/16 05:14:59;;;;;;;;;;;;;;;;;;1007996;29;1277;-26
2021/12/16 05:15:33;;;;;;;;;;;;;;;;;;1011254;29;974;-26
2021/12/16 05:16:05;;;;;;;;;;;;;;;;;;1007271;29;1443;-26
2021/12/16 05:16:40;;;;;;;;;;;;;;;;;;1007515;29;1363;-27
2021/12/16 05:17:24;;;;;;;;;;;;;;;;;;1003062;29;957;-26
2021/12/16 05:17:57;;;;;;;;;;;;;;;;;;999581;29;1298;-26
2021/12/16 05:18:33;;;;;;;;;;;;;;;;;;999445;29;1157;-27
2021/12/16 05:19:05;;;;;;;;;;;;;;;;;;992677;29;1337;-27
2021/12/16 05:19:49;;;;;;;;;;;;;;;;;;1001019;29;897;-26
2021/12/16 05:20:27;;;;;;;;;;;;;;;;;;1005788;29;939;-26
2021/12/16 05:20:59;;;;;;;;;;;;;;;;;;1006368;29;1530;-26
2021/12/16 05:24:34;;;;;;;;;;;;;;;;;;1011388;29;1311;-27
2021/12/16 05:25:21;;;;;;;;;;;;;;;;;;1011256;29;1652;-27
2021/12/16 05:26:24;;;;;;;;;;;;;;;;;;1003248;29;1303;-26
2021/12/16 05:27:10;;;;;;;;;;;;;;;;;;999465;29;1307;-26
2021/12/16 05:27:42;;;;;;;;;;;;;;;;;;1002741;29;1408;-26
2021/12/16 05:28:13;;;;;;;;;;;;;;;;;;1005487;29;1162;-26
2021/12/16 05:28:46;;;;;;;;;;;;;;;;;;1007038;29;1109;-26
2021/12/16 05:29:16;;;;;;;;;;;;;;;;;;1007233;29;1243;-26
2021/12/16 05:29:48;;;;;;;;;;;;;;;;;;1010781;29;1111;-27
2021/12/16 05:30:19;;;;;;;;;;;;;;;;;;1003292;29;921;-27
2021/12/16 05:30:50;;;;;;;;;;;;;;;;;;1002972;29;1241;-26
2021/12/16 05:31:22;;;;;;;;;;;;;;;;;;999657;29;825;-27
2021/12/16 05:31:53;;;;;;;;;;;;;;;;;;1003969;29;800;-26
2021/12/16 05:32:24;;;;;;;;;;;;;;;;;;1010719;29;1039;-26
2021/12/16 05:32:55;;;;;;;;;;;;;;;;;;1007137;29;1152;-26
2021/12/16 05:33:26;;;;;;;;;;;;;;;;;;1006575;29;2437;-27
2021/12/16 05:33:58;;;;;;;;;;;;;;;;;;1007168;29;1388;-26
2021/12/16 05:34:29;;;;;;;;;;;;;;;;;;1006856;29;1298;-26
2021/12/16 05:35:00;;;;;;;;;;;;;;;;;;1010620;29;1275;-27
2021/12/16 05:35:31;;;;;;;;;;;;;;;;;;1010572;29;1234;-26
2021/12/16 05:36:03;;;;;;;;;;;;;;;;;;1006387;29;1320;-26
2021/12/16 05:36:34;;;;;;;;;;;;;;;;;;1006045;29;1220;-27
2021/12/16 05:37:07;;;;;;;;;;;;;;;;;;998861;29;1286;-26
2021/12/16 05:37:42;;;;;;;;;;;;;;;;;;1003105;29;1528;-27
2021/12/16 05:38:14;;;;;;;;;;;;;;;;;;1001248;29;1387;-26
2021/12/16 05:38:45;;;;;;;;;;;;;;;;;;993642;29;1275;-27
2021/12/16 05:39:16;;;;;;;;;;;;;;;;;;995739;29;1452;-26
2021/12/16 05:39:55;;;;;;;;;;;;;;;;;;995750;29;1288;-26
2021/12/16 05:40:44;;;;;;;;;;;;;;;;;;1000000;29;632;-26
2021/12/16 05:41:19;;;;;;;;;;;;;;;;;;1007191;29;1121;-26
2021/12/16 05:41:51;;;;;;;;;;;;;;;;;;1003339;29;1286;-26
2021/12/16 05:42:25;;;;;;;;;;;;;;;;;;1007059;29;1339;-27
2021/12/16 05:42:58;;;;;;;;;;;;;;;;;;1005243;29;1339;-26
2021/12/16 05:43:29;;;;;;;;;;;;;;;;;;1002845;29;927;-27
2021/12/16 05:43:59;;;;;;;;;;;;;;;;;;1005972;29;1267;-27
2021/12/16 05:44:31;;;;;;;;;;;;;;;;;;1007435;29;1328;-26
2021/12/16 05:45:01;;;;;;;;;;;;;;;;;;1010872;29;1135;-26
2021/12/16 05:45:32;;;;;;;;;;;;;;;;;;1010623;29;1515;-27
2021/12/16 05:46:03;;;;;;;;;;;;;;;;;;1007044;29;1246;-26
2021/12/16 05:46:34;;;;;;;;;;;;;;;;;;1007150;29;1365;-27
2021/12/16 05:47:05;;;;;;;;;;;;;;;;;;998280;29;1377;-27
2021/12/16 05:47:36;;;;;;;;;;;;;;;;;;995695;29;1172;-27
2021/12/16 05:48:09;;;;;;;;;;;;;;;;;;999134;29;1331;-26
2021/12/16 05:48:42;;;;;;;;;;;;;;;;;;999539;29;1165;-26
2021/12/16 05:49:13;;;;;;;;;;;;;;;;;;999325;29;986;-27
2021/12/16 05:49:49;;;;;;;;;;;;;;;;;;997995;29;1205;-26
2021/12/16 05:50:20;;;;;;;;;;;;;;;;;;994809;29;1056;-26
2021/12/16 05:50:53;;;;;;;;;;;;;;;;;;997730;29;1437;-26
2021/12/16 05:51:25;;;;;;;;;;;;;;;;;;1003140;29;1137;-27
2021/12/16 05:51:57;;;;;;;;;;;;;;;;;;1003316;29;1310;-27
2021/12/16 05:52:27;;;;;;;;;;;;;;;;;;998681;29;1347;-26
2021/12/16 05:52:57;;;;;;;;;;;;;;;;;;995869;29;1335;-26
2021/12/16 05:53:28;;;;;;;;;;;;;;;;;;1002875;29;2000;-27
2021/12/16 05:54:00;;;;;;;;;;;;;;;;;;1003083;29;1346;-26
2021/12/16 05:54:42;;;;;;;;;;;;;;;;;;1007040;29;898;-27
2021/12/16 05:55:20;;;;;;;;;;;;;;;;;;1004414;29;1443;-26
2021/12/16 05:56:13;;;;;;;;;;;;;;;;;;994964;29;1491;-26
2021/12/16 05:56:46;;;;;;;;;;;;;;;;;;1003432;29;1211;-27
2021/12/16 05:57:19;;;;;;;;;;;;;;;;;;1007260;29;1197;-24
2021/12/16 05:57:56;;;;;;;;;;;;;;;;;;1010976;29;1761;-27
2021/12/16 05:58:27;;;;;;;;;;;;;;;;;;1003056;29;1148;-26
2021/12/16 05:58:59;;;;;;;;;;;;;;;;;;1001842;29;1321;-27
2021/12/16 05:59:30;;;;;;;;;;;;;;;;;;999013;29;1130;-27
2021/12/16 06:00:01;;;;;;;;;;;;;;;;;;995840;29;1311;-27
2021/12/16 06:00:34;;;;;;;;;;;;;;;;;;999495;29;988;-27
2021/12/16 06:01:08;;;;;;;;;;;;;;;;;;999645;29;1311;-27
2021/12/16 06:01:40;;;;;;;;;;;;;;;;;;1001726;29;1255;-27
2021/12/16 06:02:11;;;;;;;;;;;;;;;;;;996924;29;2151;-26
2021/12/16 06:02:43;;;;;;;;;;;;;;;;;;991600;29;1354;-26
2021/12/16 06:03:15;;;;;;;;;;;;;;;;;;992420;29;1459;-26
2021/12/16 06:03:46;;;;;;;;;;;;;;;;;;994692;29;1216;-26
2021/12/16 06:04:16;;;;;;;;;;;;;;;;;;993246;29;1178;-26
2021/12/16 06:04:50;;;;;;;;;;;;;;;;;;1002964;29;1360;-27
2021/12/16 06:05:21;;;;;;;;;;;;;;;;;;1006617;29;1249;-26
2021/12/16 06:05:52;;;;;;;;;;;;;;;;;;1003027;29;1332;-26
2021/12/16 06:06:23;;;;;;;;;;;;;;;;;;1006656;29;1409;-26
2021/12/16 06:06:54;;;;;;;;;;;;;;;;;;1006422;29;1444;-27
2021/12/16 06:07:24;;;;;;;;;;;;;;;;;;1006683;29;1308;-26
2021/12/16 06:07:55;;;;;;;;;;;;;;;;;;1006481;29;1475;-26
2021/12/16 06:08:26;;;;;;;;;;;;;;;;;;1007099;29;1590;-26
2021/12/16 06:08:57;;;;;;;;;;;;;;;;;;1006868;29;1329;-26
2021/12/16 06:09:28;;;;;;;;;;;;;;;;;;1003534;29;1087;-26
2021/12/16 06:09:58;;;;;;;;;;;;;;;;;;1007367;29;804;-26
2021/12/16 06:11:25;;;;;;;;;;;;;;;;;;1010873;29;1113;-26
2021/12/16 06:11:55;;;;;;;;;;;;;;;;;;1010690;29;1046;-27
2021/12/16 06:12:27;;;;;;;;;;;;;;;;;;1007812;29;904;-26
2021/12/16 06:12:57;;;;;;;;;;;;;;;;;;1007299;29;1586;-26
2021/12/16 06:13:33;;;;;;;;;;;;;;;;;;1007152;29;1911;-27
2021/12/16 06:14:18;;;;;;;;;;;;;;;;;;1007643;29;1181;-26
2021/12/16 06:15:03;;;;;;;;;;;;;;;;;;1006756;29;1076;-26
2021/12/16 06:15:45;;;;;;;;;;;;;;;;;;1007212;29;942;-26
2021/12/16 06:26:39;;;;;;;;;;;;;;;;;;999359;29;1065;-26